sensor_id;sensor_type;location;lat;lon;timestamp;P1;durP1;ratioP1;P2;durP2;ratioP2
75419;SDS011;63998;52.488;13.428;2024-01-27T00:00:17;11.20;;;1.43;;
75419;SDS011;63998;52.488;13.428;2024-01-27T00:02:43;11.80;;;2.10;;
75419;SDS011;63998;52.488;13.428;2024-01-27T00:05:09;12.65;;;2.63;;
75419;SDS011;63998;52.488;13.428;2024-01-27T00:07:34;9.70;;;1.80;;
75419;SDS011;63998;52.488;13.428;2024-01-27T00:09:59;11.38;;;1.58;;
75419;SDS011;63998;52.488;13.428;2024-01-27T00:12:26;13.50;;;2.22;;
75419;SDS011;63998;52.488;13.428;2024-01-27T00:14:51;8.07;;;1.67;;
75419;SDS011;63998;52.488;13.428;2024-01-27T00:17:16;8.50;;;2.20;;
75419;SDS011;63998;52.488;13.428;2024-01-27T00:19:42;5.27;;;1.30;;
75419;SDS011;63998;52.488;13.428;2024-01-27T00:22:07;10.47;;;2.33;;
75419;SDS011;63998;52.488;13.428;2024-01-27T00:24:33;6.43;;;1.42;;
75419;SDS011;63998;52.488;13.428;2024-01-27T00:26:59;8.18;;;1.65;;
75419;SDS011;63998;52.488;13.428;2024-01-27T00:29:25;10.32;;;1.92;;
75419;SDS011;63998;52.488;13.428;2024-01-27T00:31:51;5.37;;;1.37;;
75419;SDS011;63998;52.488;13.428;2024-01-27T00:34:16;6.68;;;1.52;;
75419;SDS011;63998;52.488;13.428;2024-01-27T00:36:42;11.55;;;1.85;;
75419;SDS011;63998;52.488;13.428;2024-01-27T00:39:13;11.18;;;2.13;;
75419;SDS011;63998;52.488;13.428;2024-01-27T00:41:39;11.35;;;2.13;;
75419;SDS011;63998;52.488;13.428;2024-01-27T00:44:04;9.07;;;1.40;;
75419;SDS011;63998;52.488;13.428;2024-01-27T00:46:30;12.43;;;2.00;;
75419;SDS011;63998;52.488;13.428;2024-01-27T00:48:55;7.17;;;1.93;;
75419;SDS011;63998;52.488;13.428;2024-01-27T00:51:20;8.57;;;2.07;;
75419;SDS011;63998;52.488;13.428;2024-01-27T00:53:46;6.43;;;1.75;;
75419;SDS011;63998;52.488;13.428;2024-01-27T00:56:11;11.98;;;2.15;;
75419;SDS011;63998;52.488;13.428;2024-01-27T00:58:37;9.15;;;1.83;;
75419;SDS011;63998;52.488;13.428;2024-01-27T01:01:02;10.27;;;1.73;;
75419;SDS011;63998;52.488;13.428;2024-01-27T01:03:28;13.50;;;2.15;;
75419;SDS011;63998;52.488;13.428;2024-01-27T01:05:53;7.85;;;1.40;;
75419;SDS011;63998;52.488;13.428;2024-01-27T01:08:19;9.80;;;1.58;;
75419;SDS011;63998;52.488;13.428;2024-01-27T01:10:44;10.88;;;1.90;;
75419;SDS011;63998;52.488;13.428;2024-01-27T01:13:10;6.45;;;1.52;;
75419;SDS011;63998;52.488;13.428;2024-01-27T01:15:35;8.13;;;1.45;;
75419;SDS011;63998;52.488;13.428;2024-01-27T01:18:01;5.75;;;0.90;;
75419;SDS011;63998;52.488;13.428;2024-01-27T01:20:26;10.77;;;1.65;;
75419;SDS011;63998;52.488;13.428;2024-01-27T01:22:52;7.60;;;1.70;;
75419;SDS011;63998;52.488;13.428;2024-01-27T01:25:18;9.18;;;2.17;;
75419;SDS011;63998;52.488;13.428;2024-01-27T01:27:43;11.60;;;1.65;;
75419;SDS011;63998;52.488;13.428;2024-01-27T01:30:10;19.05;;;2.10;;
75419;SDS011;63998;52.488;13.428;2024-01-27T01:32:35;7.50;;;1.50;;
75419;SDS011;63998;52.488;13.428;2024-01-27T01:35:01;7.95;;;1.70;;
75419;SDS011;63998;52.488;13.428;2024-01-27T01:37:26;8.30;;;1.60;;
75419;SDS011;63998;52.488;13.428;2024-01-27T01:39:51;8.80;;;1.70;;
75419;SDS011;63998;52.488;13.428;2024-01-27T01:42:17;11.37;;;1.93;;
75419;SDS011;63998;52.488;13.428;2024-01-27T01:44:43;8.75;;;1.67;;
75419;SDS011;63998;52.488;13.428;2024-01-27T01:47:08;8.10;;;1.73;;
75419;SDS011;63998;52.488;13.428;2024-01-27T01:49:34;9.30;;;1.75;;
75419;SDS011;63998;52.488;13.428;2024-01-27T01:52:01;10.13;;;2.22;;
75419;SDS011;63998;52.488;13.428;2024-01-27T01:54:26;9.40;;;2.10;;
75419;SDS011;63998;52.488;13.428;2024-01-27T01:56:53;9.40;;;2.00;;
75419;SDS011;63998;52.488;13.428;2024-01-27T01:59:20;8.68;;;1.83;;
75419;SDS011;63998;52.488;13.428;2024-01-27T02:01:45;7.95;;;1.73;;
75419;SDS011;63998;52.488;13.428;2024-01-27T02:04:11;10.73;;;2.17;;
75419;SDS011;63998;52.488;13.428;2024-01-27T02:06:36;11.77;;;1.83;;
75419;SDS011;63998;52.488;13.428;2024-01-27T02:09:02;10.37;;;2.33;;
75419;SDS011;63998;52.488;13.428;2024-01-27T02:11:27;8.80;;;1.90;;
75419;SDS011;63998;52.488;13.428;2024-01-27T02:13:52;5.00;;;1.67;;
75419;SDS011;63998;52.488;13.428;2024-01-27T02:16:18;6.65;;;1.67;;
75419;SDS011;63998;52.488;13.428;2024-01-27T02:18:43;4.53;;;1.43;;
75419;SDS011;63998;52.488;13.428;2024-01-27T02:21:09;11.55;;;2.33;;
75419;SDS011;63998;52.488;13.428;2024-01-27T02:23:34;4.90;;;1.63;;
75419;SDS011;63998;52.488;13.428;2024-01-27T02:25:59;9.50;;;1.90;;
75419;SDS011;63998;52.488;13.428;2024-01-27T02:28:25;8.77;;;1.50;;
75419;SDS011;63998;52.488;13.428;2024-01-27T02:30:50;5.22;;;1.27;;
75419;SDS011;63998;52.488;13.428;2024-01-27T02:33:16;14.55;;;1.90;;
75419;SDS011;63998;52.488;13.428;2024-01-27T02:35:41;6.97;;;1.55;;
75419;SDS011;63998;52.488;13.428;2024-01-27T02:38:08;12.80;;;2.13;;
75419;SDS011;63998;52.488;13.428;2024-01-27T02:40:34;8.90;;;1.90;;
75419;SDS011;63998;52.488;13.428;2024-01-27T02:42:59;11.43;;;1.83;;
75419;SDS011;63998;52.488;13.428;2024-01-27T02:45:24;10.27;;;1.90;;
75419;SDS011;63998;52.488;13.428;2024-01-27T02:47:50;13.17;;;2.03;;
75419;SDS011;63998;52.488;13.428;2024-01-27T02:50:15;13.63;;;2.25;;
75419;SDS011;63998;52.488;13.428;2024-01-27T02:52:41;12.60;;;2.05;;
75419;SDS011;63998;52.488;13.428;2024-01-27T02:55:06;8.87;;;1.60;;
75419;SDS011;63998;52.488;13.428;2024-01-27T02:57:32;8.93;;;1.83;;
75419;SDS011;63998;52.488;13.428;2024-01-27T02:59:57;12.77;;;1.60;;
75419;SDS011;63998;52.488;13.428;2024-01-27T03:02:22;9.95;;;1.75;;
75419;SDS011;63998;52.488;13.428;2024-01-27T03:04:48;8.63;;;1.60;;
75419;SDS011;63998;52.488;13.428;2024-01-27T03:07:13;9.88;;;1.40;;
75419;SDS011;63998;52.488;13.428;2024-01-27T03:09:38;9.65;;;1.95;;
75419;SDS011;63998;52.488;13.428;2024-01-27T03:12:04;7.53;;;1.77;;
75419;SDS011;63998;52.488;13.428;2024-01-27T03:14:29;12.85;;;2.00;;
75419;SDS011;63998;52.488;13.428;2024-01-27T03:16:55;7.45;;;1.92;;
75419;SDS011;63998;52.488;13.428;2024-01-27T03:19:20;7.30;;;1.50;;
75419;SDS011;63998;52.488;13.428;2024-01-27T03:21:46;11.03;;;1.90;;
75419;SDS011;63998;52.488;13.428;2024-01-27T03:24:11;8.88;;;1.60;;
75419;SDS011;63998;52.488;13.428;2024-01-27T03:26:37;11.45;;;1.70;;
75419;SDS011;63998;52.488;13.428;2024-01-27T03:29:02;5.63;;;1.70;;
75419;SDS011;63998;52.488;13.428;2024-01-27T03:31:31;11.52;;;1.92;;
75419;SDS011;63998;52.488;13.428;2024-01-27T03:34:00;11.90;;;2.58;;
75419;SDS011;63998;52.488;13.428;2024-01-27T03:36:26;8.85;;;1.77;;
75419;SDS011;63998;52.488;13.428;2024-01-27T03:38:52;10.10;;;1.38;;
75419;SDS011;63998;52.488;13.428;2024-01-27T03:41:18;16.92;;;1.92;;
75419;SDS011;63998;52.488;13.428;2024-01-27T03:43:43;16.15;;;1.80;;
75419;SDS011;63998;52.488;13.428;2024-01-27T03:46:09;9.10;;;1.93;;
75419;SDS011;63998;52.488;13.428;2024-01-27T03:48:34;11.50;;;1.58;;
75419;SDS011;63998;52.488;13.428;2024-01-27T03:51:02;13.55;;;1.77;;
75419;SDS011;63998;52.488;13.428;2024-01-27T03:53:28;11.13;;;1.13;;
75419;SDS011;63998;52.488;13.428;2024-01-27T03:55:53;11.10;;;1.23;;
75419;SDS011;63998;52.488;13.428;2024-01-27T03:58:19;12.75;;;1.67;;
75419;SDS011;63998;52.488;13.428;2024-01-27T04:00:44;11.48;;;2.00;;
75419;SDS011;63998;52.488;13.428;2024-01-27T04:03:09;6.78;;;1.45;;
75419;SDS011;63998;52.488;13.428;2024-01-27T04:05:35;9.70;;;1.43;;
75419;SDS011;63998;52.488;13.428;2024-01-27T04:08:00;10.80;;;1.57;;
75419;SDS011;63998;52.488;13.428;2024-01-27T04:10:25;10.57;;;2.63;;
75419;SDS011;63998;52.488;13.428;2024-01-27T04:12:51;11.15;;;2.08;;
75419;SDS011;63998;52.488;13.428;2024-01-27T04:15:16;11.83;;;1.90;;
75419;SDS011;63998;52.488;13.428;2024-01-27T04:17:41;12.43;;;2.20;;
75419;SDS011;63998;52.488;13.428;2024-01-27T04:20:07;7.38;;;1.30;;
75419;SDS011;63998;52.488;13.428;2024-01-27T04:22:34;8.73;;;1.67;;
75419;SDS011;63998;52.488;13.428;2024-01-27T04:25:00;9.27;;;1.70;;
75419;SDS011;63998;52.488;13.428;2024-01-27T04:27:28;6.75;;;1.17;;
75419;SDS011;63998;52.488;13.428;2024-01-27T04:29:53;12.15;;;2.72;;
75419;SDS011;63998;52.488;13.428;2024-01-27T04:32:19;10.03;;;2.23;;
75419;SDS011;63998;52.488;13.428;2024-01-27T04:34:46;10.88;;;1.50;;
75419;SDS011;63998;52.488;13.428;2024-01-27T04:37:12;10.15;;;2.13;;
75419;SDS011;63998;52.488;13.428;2024-01-27T04:39:37;9.35;;;1.55;;
75419;SDS011;63998;52.488;13.428;2024-01-27T04:42:02;7.53;;;1.75;;
75419;SDS011;63998;52.488;13.428;2024-01-27T04:44:28;8.82;;;2.15;;
75419;SDS011;63998;52.488;13.428;2024-01-27T04:46:53;6.73;;;1.53;;
75419;SDS011;63998;52.488;13.428;2024-01-27T04:49:19;8.10;;;1.90;;
75419;SDS011;63998;52.488;13.428;2024-01-27T04:51:44;13.18;;;2.17;;
75419;SDS011;63998;52.488;13.428;2024-01-27T04:54:10;11.75;;;1.88;;
75419;SDS011;63998;52.488;13.428;2024-01-27T04:56:35;12.98;;;2.47;;
75419;SDS011;63998;52.488;13.428;2024-01-27T04:59:02;14.70;;;2.00;;
75419;SDS011;63998;52.488;13.428;2024-01-27T05:01:27;6.95;;;1.77;;
75419;SDS011;63998;52.488;13.428;2024-01-27T05:03:53;13.60;;;2.80;;
75419;SDS011;63998;52.488;13.428;2024-01-27T05:06:18;13.63;;;2.43;;
75419;SDS011;63998;52.488;13.428;2024-01-27T05:08:44;7.28;;;1.92;;
75419;SDS011;63998;52.488;13.428;2024-01-27T05:11:09;6.32;;;1.50;;
75419;SDS011;63998;52.488;13.428;2024-01-27T05:13:35;13.00;;;2.05;;
75419;SDS011;63998;52.488;13.428;2024-01-27T05:16:00;17.70;;;1.95;;
75419;SDS011;63998;52.488;13.428;2024-01-27T05:18:26;12.00;;;2.10;;
75419;SDS011;63998;52.488;13.428;2024-01-27T05:20:51;7.43;;;1.20;;
75419;SDS011;63998;52.488;13.428;2024-01-27T05:23:16;8.53;;;2.10;;
75419;SDS011;63998;52.488;13.428;2024-01-27T05:25:42;14.57;;;2.03;;
75419;SDS011;63998;52.488;13.428;2024-01-27T05:28:07;7.90;;;2.03;;
75419;SDS011;63998;52.488;13.428;2024-01-27T05:30:32;12.83;;;2.23;;
75419;SDS011;63998;52.488;13.428;2024-01-27T05:32:58;9.85;;;2.13;;
75419;SDS011;63998;52.488;13.428;2024-01-27T05:35:23;11.15;;;2.28;;
75419;SDS011;63998;52.488;13.428;2024-01-27T05:37:49;9.83;;;1.43;;
75419;SDS011;63998;52.488;13.428;2024-01-27T05:40:15;14.90;;;2.35;;
75419;SDS011;63998;52.488;13.428;2024-01-27T05:42:41;10.82;;;2.10;;
75419;SDS011;63998;52.488;13.428;2024-01-27T05:45:08;16.23;;;2.17;;
75419;SDS011;63998;52.488;13.428;2024-01-27T05:47:35;11.27;;;1.88;;
75419;SDS011;63998;52.488;13.428;2024-01-27T05:50:00;12.00;;;2.00;;
75419;SDS011;63998;52.488;13.428;2024-01-27T05:52:25;14.67;;;2.43;;
75419;SDS011;63998;52.488;13.428;2024-01-27T05:54:51;12.00;;;1.97;;
75419;SDS011;63998;52.488;13.428;2024-01-27T05:57:17;9.68;;;2.53;;
75419;SDS011;63998;52.488;13.428;2024-01-27T05:59:42;10.40;;;1.83;;
75419;SDS011;63998;52.488;13.428;2024-01-27T06:02:07;8.13;;;2.10;;
75419;SDS011;63998;52.488;13.428;2024-01-27T06:04:33;11.50;;;2.20;;
75419;SDS011;63998;52.488;13.428;2024-01-27T06:06:59;15.63;;;2.53;;
75419;SDS011;63998;52.488;13.428;2024-01-27T06:09:25;10.40;;;2.15;;
75419;SDS011;63998;52.488;13.428;2024-01-27T06:11:50;8.13;;;2.60;;
75419;SDS011;63998;52.488;13.428;2024-01-27T06:14:15;15.70;;;1.90;;
75419;SDS011;63998;52.488;13.428;2024-01-27T06:16:41;13.20;;;2.72;;
75419;SDS011;63998;52.488;13.428;2024-01-27T06:19:06;7.80;;;1.67;;
75419;SDS011;63998;52.488;13.428;2024-01-27T06:21:31;11.33;;;2.40;;
75419;SDS011;63998;52.488;13.428;2024-01-27T06:23:57;15.57;;;2.00;;
75419;SDS011;63998;52.488;13.428;2024-01-27T06:26:22;12.80;;;2.27;;
75419;SDS011;63998;52.488;13.428;2024-01-27T06:28:47;11.07;;;2.00;;
75419;SDS011;63998;52.488;13.428;2024-01-27T06:31:13;10.43;;;2.33;;
75419;SDS011;63998;52.488;13.428;2024-01-27T06:33:39;8.48;;;1.80;;
75419;SDS011;63998;52.488;13.428;2024-01-27T06:36:05;9.10;;;1.95;;
75419;SDS011;63998;52.488;13.428;2024-01-27T06:38:31;10.70;;;1.92;;
75419;SDS011;63998;52.488;13.428;2024-01-27T06:40:56;11.27;;;2.00;;
75419;SDS011;63998;52.488;13.428;2024-01-27T06:43:22;8.00;;;2.17;;
75419;SDS011;63998;52.488;13.428;2024-01-27T06:45:48;14.95;;;2.38;;
75419;SDS011;63998;52.488;13.428;2024-01-27T06:48:13;9.13;;;2.92;;
75419;SDS011;63998;52.488;13.428;2024-01-27T06:50:39;14.40;;;2.20;;
75419;SDS011;63998;52.488;13.428;2024-01-27T06:53:04;11.70;;;1.97;;
75419;SDS011;63998;52.488;13.428;2024-01-27T06:55:29;10.60;;;1.80;;
75419;SDS011;63998;52.488;13.428;2024-01-27T06:57:55;8.77;;;1.83;;
75419;SDS011;63998;52.488;13.428;2024-01-27T07:00:20;8.63;;;1.85;;
75419;SDS011;63998;52.488;13.428;2024-01-27T07:02:46;9.77;;;1.77;;
75419;SDS011;63998;52.488;13.428;2024-01-27T07:05:11;8.65;;;2.38;;
75419;SDS011;63998;52.488;13.428;2024-01-27T07:07:40;7.13;;;1.85;;
75419;SDS011;63998;52.488;13.428;2024-01-27T07:10:06;13.95;;;2.53;;
75419;SDS011;63998;52.488;13.428;2024-01-27T07:12:35;10.70;;;1.58;;
75419;SDS011;63998;52.488;13.428;2024-01-27T07:15:01;15.50;;;2.20;;
75419;SDS011;63998;52.488;13.428;2024-01-27T07:17:27;7.55;;;1.60;;
75419;SDS011;63998;52.488;13.428;2024-01-27T07:19:52;9.93;;;1.98;;
75419;SDS011;63998;52.488;13.428;2024-01-27T07:22:18;6.55;;;1.80;;
75419;SDS011;63998;52.488;13.428;2024-01-27T07:24:43;8.43;;;2.53;;
75419;SDS011;63998;52.488;13.428;2024-01-27T07:27:11;15.33;;;2.47;;
75419;SDS011;63998;52.488;13.428;2024-01-27T07:29:37;8.15;;;2.42;;
75419;SDS011;63998;52.488;13.428;2024-01-27T07:32:03;12.40;;;1.80;;
75419;SDS011;63998;52.488;13.428;2024-01-27T07:34:28;9.60;;;1.85;;
75419;SDS011;63998;52.488;13.428;2024-01-27T07:36:54;8.17;;;2.00;;
75419;SDS011;63998;52.488;13.428;2024-01-27T07:39:19;10.00;;;2.00;;
75419;SDS011;63998;52.488;13.428;2024-01-27T07:41:44;8.63;;;2.10;;
75419;SDS011;63998;52.488;13.428;2024-01-27T07:44:10;10.68;;;2.00;;
75419;SDS011;63998;52.488;13.428;2024-01-27T07:46:40;16.73;;;3.00;;
75419;SDS011;63998;52.488;13.428;2024-01-27T07:49:06;10.30;;;2.38;;
75419;SDS011;63998;52.488;13.428;2024-01-27T07:51:32;12.35;;;2.15;;
75419;SDS011;63998;52.488;13.428;2024-01-27T07:53:58;10.52;;;2.38;;
75419;SDS011;63998;52.488;13.428;2024-01-27T07:56:24;11.77;;;2.10;;
75419;SDS011;63998;52.488;13.428;2024-01-27T07:58:50;12.68;;;2.38;;
75419;SDS011;63998;52.488;13.428;2024-01-27T08:01:16;15.23;;;2.47;;
75419;SDS011;63998;52.488;13.428;2024-01-27T08:03:42;9.90;;;2.33;;
75419;SDS011;63998;52.488;13.428;2024-01-27T08:06:10;10.20;;;2.10;;
75419;SDS011;63998;52.488;13.428;2024-01-27T08:08:40;14.23;;;2.25;;
75419;SDS011;63998;52.488;13.428;2024-01-27T08:11:05;8.65;;;2.00;;
75419;SDS011;63998;52.488;13.428;2024-01-27T08:13:30;16.03;;;3.03;;
75419;SDS011;63998;52.488;13.428;2024-01-27T08:15:56;8.90;;;2.30;;
75419;SDS011;63998;52.488;13.428;2024-01-27T08:18:21;9.63;;;2.33;;
75419;SDS011;63998;52.488;13.428;2024-01-27T08:20:46;14.60;;;2.43;;
75419;SDS011;63998;52.488;13.428;2024-01-27T08:23:14;12.23;;;2.30;;
75419;SDS011;63998;52.488;13.428;2024-01-27T08:25:39;8.10;;;2.33;;
75419;SDS011;63998;52.488;13.428;2024-01-27T08:28:05;15.07;;;2.35;;
75419;SDS011;63998;52.488;13.428;2024-01-27T08:30:31;14.13;;;2.15;;
75419;SDS011;63998;52.488;13.428;2024-01-27T08:32:57;13.50;;;2.23;;
75419;SDS011;63998;52.488;13.428;2024-01-27T08:35:22;13.90;;;2.57;;
75419;SDS011;63998;52.488;13.428;2024-01-27T08:37:47;8.90;;;1.85;;
75419;SDS011;63998;52.488;13.428;2024-01-27T08:40:13;13.80;;;2.80;;
75419;SDS011;63998;52.488;13.428;2024-01-27T08:42:39;8.65;;;2.17;;
75419;SDS011;63998;52.488;13.428;2024-01-27T08:45:05;10.57;;;2.20;;
75419;SDS011;63998;52.488;13.428;2024-01-27T08:47:31;10.45;;;1.90;;
75419;SDS011;63998;52.488;13.428;2024-01-27T08:49:56;13.38;;;2.47;;
75419;SDS011;63998;52.488;13.428;2024-01-27T08:52:22;12.40;;;2.47;;
75419;SDS011;63998;52.488;13.428;2024-01-27T08:54:47;10.65;;;2.10;;
75419;SDS011;63998;52.488;13.428;2024-01-27T08:57:12;12.27;;;2.00;;
75419;SDS011;63998;52.488;13.428;2024-01-27T08:59:38;15.85;;;2.50;;
75419;SDS011;63998;52.488;13.428;2024-01-27T09:02:03;8.93;;;2.30;;
75419;SDS011;63998;52.488;13.428;2024-01-27T09:04:28;15.20;;;3.00;;
75419;SDS011;63998;52.488;13.428;2024-01-27T09:06:54;8.83;;;1.70;;
75419;SDS011;63998;52.488;13.428;2024-01-27T09:09:19;7.13;;;1.55;;
75419;SDS011;63998;52.488;13.428;2024-01-27T09:11:44;8.37;;;2.30;;
75419;SDS011;63998;52.488;13.428;2024-01-27T09:14:11;10.13;;;2.20;;
75419;SDS011;63998;52.488;13.428;2024-01-27T09:16:36;10.30;;;2.10;;
75419;SDS011;63998;52.488;13.428;2024-01-27T09:19:02;11.18;;;2.33;;
75419;SDS011;63998;52.488;13.428;2024-01-27T09:21:27;13.57;;;2.03;;
75419;SDS011;63998;52.488;13.428;2024-01-27T09:23:57;10.07;;;2.05;;
75419;SDS011;63998;52.488;13.428;2024-01-27T09:26:23;11.52;;;2.50;;
75419;SDS011;63998;52.488;13.428;2024-01-27T09:28:49;9.55;;;1.90;;
75419;SDS011;63998;52.488;13.428;2024-01-27T09:31:26;7.70;;;1.63;;
75419;SDS011;63998;52.488;13.428;2024-01-27T09:33:53;16.20;;;2.17;;
75419;SDS011;63998;52.488;13.428;2024-01-27T09:36:19;9.07;;;2.20;;
75419;SDS011;63998;52.488;13.428;2024-01-27T09:38:44;9.73;;;1.95;;
75419;SDS011;63998;52.488;13.428;2024-01-27T09:41:11;18.50;;;2.83;;
75419;SDS011;63998;52.488;13.428;2024-01-27T09:43:40;14.50;;;2.40;;
75419;SDS011;63998;52.488;13.428;2024-01-27T09:46:10;11.32;;;2.45;;
75419;SDS011;63998;52.488;13.428;2024-01-27T09:48:36;13.00;;;1.85;;
75419;SDS011;63998;52.488;13.428;2024-01-27T09:51:03;14.30;;;2.17;;
75419;SDS011;63998;52.488;13.428;2024-01-27T09:53:29;9.25;;;2.40;;
75419;SDS011;63998;52.488;13.428;2024-01-27T09:55:58;11.23;;;2.35;;
75419;SDS011;63998;52.488;13.428;2024-01-27T09:58:24;16.90;;;2.30;;
75419;SDS011;63998;52.488;13.428;2024-01-27T10:00:53;9.65;;;2.00;;
75419;SDS011;63998;52.488;13.428;2024-01-27T10:03:22;12.32;;;2.28;;
75419;SDS011;63998;52.488;13.428;2024-01-27T10:05:49;10.45;;;2.22;;
75419;SDS011;63998;52.488;13.428;2024-01-27T10:08:17;8.57;;;2.10;;
75419;SDS011;63998;52.488;13.428;2024-01-27T10:10:42;10.45;;;2.20;;
75419;SDS011;63998;52.488;13.428;2024-01-27T10:13:08;11.97;;;2.20;;
75419;SDS011;63998;52.488;13.428;2024-01-27T10:15:38;8.15;;;1.90;;
75419;SDS011;63998;52.488;13.428;2024-01-27T10:18:04;8.63;;;1.80;;
75419;SDS011;63998;52.488;13.428;2024-01-27T10:20:33;6.65;;;1.80;;
75419;SDS011;63998;52.488;13.428;2024-01-27T10:22:59;9.68;;;1.92;;
75419;SDS011;63998;52.488;13.428;2024-01-27T10:25:37;10.30;;;2.05;;
75419;SDS011;63998;52.488;13.428;2024-01-27T10:28:03;10.57;;;2.50;;
75419;SDS011;63998;52.488;13.428;2024-01-27T10:30:31;4.50;;;1.73;;
75419;SDS011;63998;52.488;13.428;2024-01-27T10:32:56;10.23;;;2.30;;
75419;SDS011;63998;52.488;13.428;2024-01-27T10:35:22;16.45;;;2.65;;
75419;SDS011;63998;52.488;13.428;2024-01-27T10:37:51;10.20;;;1.93;;
75419;SDS011;63998;52.488;13.428;2024-01-27T10:40:17;8.30;;;1.90;;
75419;SDS011;63998;52.488;13.428;2024-01-27T10:42:42;12.00;;;1.88;;
75419;SDS011;63998;52.488;13.428;2024-01-27T10:45:09;10.35;;;1.90;;
75419;SDS011;63998;52.488;13.428;2024-01-27T10:47:36;7.13;;;1.80;;
75419;SDS011;63998;52.488;13.428;2024-01-27T10:50:03;12.77;;;2.15;;
75419;SDS011;63998;52.488;13.428;2024-01-27T10:52:34;8.10;;;1.90;;
75419;SDS011;63998;52.488;13.428;2024-01-27T10:55:03;6.90;;;1.63;;
75419;SDS011;63998;52.488;13.428;2024-01-27T10:57:35;8.65;;;1.90;;
75419;SDS011;63998;52.488;13.428;2024-01-27T11:00:02;8.95;;;2.58;;
75419;SDS011;63998;52.488;13.428;2024-01-27T11:02:32;12.88;;;2.10;;
75419;SDS011;63998;52.488;13.428;2024-01-27T11:04:58;6.90;;;1.75;;
75419;SDS011;63998;52.488;13.428;2024-01-27T11:07:25;6.93;;;1.77;;
75419;SDS011;63998;52.488;13.428;2024-01-27T11:09:52;8.40;;;2.13;;
75419;SDS011;63998;52.488;13.428;2024-01-27T11:12:18;13.95;;;2.72;;
75419;SDS011;63998;52.488;13.428;2024-01-27T11:14:49;7.90;;;2.00;;
75419;SDS011;63998;52.488;13.428;2024-01-27T11:17:15;12.98;;;2.05;;
75419;SDS011;63998;52.488;13.428;2024-01-27T11:19:41;12.00;;;2.45;;
75419;SDS011;63998;52.488;13.428;2024-01-27T11:22:07;8.38;;;2.08;;
75419;SDS011;63998;52.488;13.428;2024-01-27T11:24:33;7.43;;;2.00;;
75419;SDS011;63998;52.488;13.428;2024-01-27T11:27:08;10.75;;;2.20;;
75419;SDS011;63998;52.488;13.428;2024-01-27T11:29:34;12.95;;;2.30;;
75419;SDS011;63998;52.488;13.428;2024-01-27T11:32:01;13.52;;;2.67;;
75419;SDS011;63998;52.488;13.428;2024-01-27T11:34:28;10.32;;;2.60;;
75419;SDS011;63998;52.488;13.428;2024-01-27T11:36:53;10.02;;;2.53;;
75419;SDS011;63998;52.488;13.428;2024-01-27T11:41:51;9.52;;;2.78;;
75419;SDS011;63998;52.488;13.428;2024-01-27T11:44:17;8.63;;;2.00;;
75419;SDS011;63998;52.488;13.428;2024-01-27T11:46:43;11.05;;;2.78;;
75419;SDS011;63998;52.488;13.428;2024-01-27T11:49:14;12.55;;;2.25;;
75419;SDS011;63998;52.488;13.428;2024-01-27T11:51:41;10.63;;;2.60;;
75419;SDS011;63998;52.488;13.428;2024-01-27T11:54:07;10.52;;;2.13;;
75419;SDS011;63998;52.488;13.428;2024-01-27T11:56:32;9.53;;;2.50;;
75419;SDS011;63998;52.488;13.428;2024-01-27T11:58:57;11.50;;;2.67;;
75419;SDS011;63998;52.488;13.428;2024-01-27T12:01:23;9.70;;;2.50;;
75419;SDS011;63998;52.488;13.428;2024-01-27T12:03:48;12.25;;;2.95;;
75419;SDS011;63998;52.488;13.428;2024-01-27T12:06:14;12.15;;;2.75;;
75419;SDS011;63998;52.488;13.428;2024-01-27T12:08:40;14.70;;;3.35;;
75419;SDS011;63998;52.488;13.428;2024-01-27T12:11:11;12.35;;;2.70;;
75419;SDS011;63998;52.488;13.428;2024-01-27T12:13:38;8.75;;;3.20;;
75419;SDS011;63998;52.488;13.428;2024-01-27T12:16:03;12.40;;;2.93;;
75419;SDS011;63998;52.488;13.428;2024-01-27T12:18:29;10.07;;;2.42;;
75419;SDS011;63998;52.488;13.428;2024-01-27T12:20:56;9.25;;;2.55;;
75419;SDS011;63998;52.488;13.428;2024-01-27T12:23:22;14.27;;;2.53;;
75419;SDS011;63998;52.488;13.428;2024-01-27T12:25:54;13.77;;;3.33;;
75419;SDS011;63998;52.488;13.428;2024-01-27T12:28:21;13.75;;;2.85;;
75419;SDS011;63998;52.488;13.428;2024-01-27T12:30:48;12.35;;;2.83;;
75419;SDS011;63998;52.488;13.428;2024-01-27T12:33:15;13.48;;;3.72;;
75419;SDS011;63998;52.488;13.428;2024-01-27T12:35:40;11.52;;;3.47;;
75419;SDS011;63998;52.488;13.428;2024-01-27T12:38:05;14.73;;;3.38;;
75419;SDS011;63998;52.488;13.428;2024-01-27T12:40:31;15.35;;;3.60;;
75419;SDS011;63998;52.488;13.428;2024-01-27T12:42:57;9.00;;;3.00;;
75419;SDS011;63998;52.488;13.428;2024-01-27T12:45:22;15.10;;;4.13;;
75419;SDS011;63998;52.488;13.428;2024-01-27T12:47:47;11.00;;;2.70;;
75419;SDS011;63998;52.488;13.428;2024-01-27T12:50:13;8.25;;;3.40;;
75419;SDS011;63998;52.488;13.428;2024-01-27T12:52:39;8.80;;;3.28;;
75419;SDS011;63998;52.488;13.428;2024-01-27T12:55:05;9.25;;;3.05;;
75419;SDS011;63998;52.488;13.428;2024-01-27T12:57:30;9.73;;;2.83;;
75419;SDS011;63998;52.488;13.428;2024-01-27T12:59:56;9.32;;;2.95;;
75419;SDS011;63998;52.488;13.428;2024-01-27T13:02:21;7.83;;;2.80;;
75419;SDS011;63998;52.488;13.428;2024-01-27T13:04:46;10.48;;;2.90;;
75419;SDS011;63998;52.488;13.428;2024-01-27T13:07:12;14.47;;;3.17;;
75419;SDS011;63998;52.488;13.428;2024-01-27T13:09:39;12.98;;;3.40;;
75419;SDS011;63998;52.488;13.428;2024-01-27T13:12:04;16.08;;;3.45;;
75419;SDS011;63998;52.488;13.428;2024-01-27T13:14:30;9.98;;;2.90;;
75419;SDS011;63998;52.488;13.428;2024-01-27T13:16:55;7.97;;;2.60;;
75419;SDS011;63998;52.488;13.428;2024-01-27T13:19:24;10.52;;;3.25;;
75419;SDS011;63998;52.488;13.428;2024-01-27T13:21:49;7.33;;;2.50;;
75419;SDS011;63998;52.488;13.428;2024-01-27T13:24:16;13.52;;;2.90;;
75419;SDS011;63998;52.488;13.428;2024-01-27T13:26:41;11.70;;;2.92;;
75419;SDS011;63998;52.488;13.428;2024-01-27T13:29:07;8.07;;;3.00;;
75419;SDS011;63998;52.488;13.428;2024-01-27T13:31:33;6.47;;;2.50;;
75419;SDS011;63998;52.488;13.428;2024-01-27T13:33:59;10.00;;;2.83;;
75419;SDS011;63998;52.488;13.428;2024-01-27T13:36:25;6.55;;;2.60;;
75419;SDS011;63998;52.488;13.428;2024-01-27T13:38:50;13.05;;;2.90;;
75419;SDS011;63998;52.488;13.428;2024-01-27T13:41:16;10.15;;;3.10;;
75419;SDS011;63998;52.488;13.428;2024-01-27T13:43:44;7.40;;;2.78;;
75419;SDS011;63998;52.488;13.428;2024-01-27T13:46:10;8.63;;;2.50;;
75419;SDS011;63998;52.488;13.428;2024-01-27T13:48:36;11.05;;;3.10;;
75419;SDS011;63998;52.488;13.428;2024-01-27T13:51:02;9.95;;;2.70;;
75419;SDS011;63998;52.488;13.428;2024-01-27T13:53:28;9.38;;;2.60;;
75419;SDS011;63998;52.488;13.428;2024-01-27T13:55:53;11.43;;;3.35;;
75419;SDS011;63998;52.488;13.428;2024-01-27T13:58:19;8.95;;;2.83;;
75419;SDS011;63998;52.488;13.428;2024-01-27T14:00:44;9.07;;;3.45;;
75419;SDS011;63998;52.488;13.428;2024-01-27T14:03:11;12.05;;;3.20;;
75419;SDS011;63998;52.488;13.428;2024-01-27T14:05:37;12.70;;;3.60;;
75419;SDS011;63998;52.488;13.428;2024-01-27T14:08:03;8.55;;;3.13;;
75419;SDS011;63998;52.488;13.428;2024-01-27T14:10:29;8.07;;;2.97;;
75419;SDS011;63998;52.488;13.428;2024-01-27T14:12:55;7.82;;;2.60;;
75419;SDS011;63998;52.488;13.428;2024-01-27T14:15:20;8.15;;;3.20;;
75419;SDS011;63998;52.488;13.428;2024-01-27T14:17:45;9.00;;;3.55;;
75419;SDS011;63998;52.488;13.428;2024-01-27T14:20:11;10.55;;;3.72;;
75419;SDS011;63998;52.488;13.428;2024-01-27T14:22:37;10.82;;;3.53;;